Time;durP1;ratioP1;P1;durP2;ratioP2;P2;SDS_P1;SDS_P2;PMS_P1;PMS_P2;Temp;Humidity;BMP_temperature;BMP_pressure;BME280_temperature;BME280_humidity;BME280_pressure;Samples;Min_cycle;Max_cycle;Signal;HPM_P1;HPM_P2
2021/12/31 00:01:02;;;;;;;;;;;12.40;99.90;;;;;;5034061;28;19991;-81
2021/12/31 00:03:28;;;;;;;;;;;12.40;99.90;;;;;;5036836;28;20067;-80
2021/12/31 00:05:53;;;;;;;;;;;12.40;99.90;;;;;;5053642;28;20350;-81
2021/12/31 00:08:19;;;;;;;;;;;12.40;99.90;;;;;;5037935;28;19912;-82
2021/12/31 00:10:44;;;;;;;;;;;12.30;99.90;;;;;;5055702;28;20156;-82
2021/12/31 00:13:10;;;;;;;;;;;12.40;99.90;;;;;;5053692;28;19919;-80
2021/12/31 00:15:36;;;;;;;;;;;12.40;99.90;;;;;;5036587;28;20311;-80
2021/12/31 00:18:01;;;;;;;;;;;12.40;99.90;;;;;;5039908;28;20018;-80
2021/12/31 00:20:27;;;;;;;;;;;12.40;99.90;;;;;;5039012;28;20645;-81
2021/12/31 00:25:19;;;;;;;;;;;12.40;99.90;;;;;;5050044;28;19915;-81
2021/12/31 00:27:44;;;;;;;;;;;12.40;99.90;;;;;;5052963;28;19912;-81
2021/12/31 00:30:10;;;;;;;;;;;12.50;99.90;;;;;;5039019;28;19920;-81
2021/12/31 00:32:36;;;;;;;;;;;12.40;99.90;;;;;;5039459;28;19912;-80
2021/12/31 00:35:01;;;;;;;;;;;12.50;99.90;;;;;;5054712;28;19920;-80
2021/12/31 00:37:27;;;;;;;;;;;12.50;99.90;;;;;;5037027;28;20050;-82
2021/12/31 00:39:52;;;;;;;;;;;12.50;99.90;;;;;;5052423;28;20416;-81
2021/12/31 00:42:18;;;;;;;;;;;12.50;99.90;;;;;;5037284;28;20245;-82
2021/12/31 00:44:43;;;;;;;;;;;12.50;99.90;;;;;;5052204;28;20016;-82
2021/12/31 00:47:09;;;;;;;;;;;12.50;99.90;;;;;;5039019;28;20429;-81
2021/12/31 00:49:34;;;;;;;;;;;12.60;99.90;;;;;;5052797;28;19916;-82
2021/12/31 00:52:00;;;;;;;;;;;12.50;99.90;;;;;;5038256;28;20406;-81
2021/12/31 00:54:25;;;;;;;;;;;12.50;99.90;;;;;;5036516;28;19923;-81
2021/12/31 00:56:50;;;;;;;;;;;12.50;99.90;;;;;;5035917;28;19917;-81
2021/12/31 00:59:16;;;;;;;;;;;12.60;99.90;;;;;;5040928;28;19912;-82
2021/12/31 01:01:42;;;;;;;;;;;12.50;99.90;;;;;;5035481;28;19908;-81
2021/12/31 01:04:07;;;;;;;;;;;12.60;99.90;;;;;;5032088;28;20527;-82
2021/12/31 01:06:33;;;;;;;;;;;12.60;99.90;;;;;;5045432;28;19908;-82
2021/12/31 01:08:58;;;;;;;;;;;12.60;99.90;;;;;;5053993;28;19966;-82
2021/12/31 01:11:24;;;;;;;;;;;12.60;99.90;;;;;;5036485;28;19966;-82
2021/12/31 01:16:16;;;;;;;;;;;12.60;99.90;;;;;;5050500;28;19924;-82
2021/12/31 01:21:22;;;;;;;;;;;12.60;99.90;;;;;;5052241;28;19916;-82
2021/12/31 01:23:49;;;;;;;;;;;12.60;99.90;;;;;;5038376;28;19923;-83
2021/12/31 01:26:14;;;;;;;;;;;12.60;99.90;;;;;;5036783;28;19913;-83
2021/12/31 01:28:40;;;;;;;;;;;12.60;99.90;;;;;;5039738;28;19920;-82
2021/12/31 01:31:05;;;;;;;;;;;12.60;99.90;;;;;;5036848;28;19909;-81
2021/12/31 01:33:31;;;;;;;;;;;12.60;99.90;;;;;;5050314;28;20572;-81
2021/12/31 01:35:56;;;;;;;;;;;12.60;99.90;;;;;;5036569;28;20217;-82
2021/12/31 01:38:22;;;;;;;;;;;12.60;99.90;;;;;;5032686;28;19909;-82
2021/12/31 01:40:48;;;;;;;;;;;12.60;99.90;;;;;;5036961;28;20471;-81
2021/12/31 01:43:14;;;;;;;;;;;12.70;99.90;;;;;;5052598;28;19916;-81
2021/12/31 01:45:55;;;;;;;;;;;12.70;99.90;;;;;;5034049;28;19913;-81
2021/12/31 01:48:28;;;;;;;;;;;12.70;99.90;;;;;;5034595;28;19912;-81
2021/12/31 01:50:53;;;;;;;;;;;12.80;99.90;;;;;;5052929;28;20007;-80
2021/12/31 01:53:21;;;;;;;;;;;12.80;99.90;;;;;;5034802;28;20388;-81
2021/12/31 01:55:49;;;;;;;;;;;12.80;99.90;;;;;;5037039;28;19917;-81
2021/12/31 01:58:16;;;;;;;;;;;12.70;99.90;;;;;;5051395;28;20016;-82
2021/12/31 02:00:42;;;;;;;;;;;12.80;99.90;;;;;;5048946;28;19912;-81
2021/12/31 02:03:07;;;;;;;;;;;12.80;99.90;;;;;;5051396;28;19985;-81
2021/12/31 02:05:33;;;;;;;;;;;12.80;99.90;;;;;;5049353;28;19913;-82
2021/12/31 02:07:59;;;;;;;;;;;12.70;99.90;;;;;;5049278;28;19948;-81
2021/12/31 02:10:24;;;;;;;;;;;12.70;99.90;;;;;;5033110;28;19912;-81
2021/12/31 02:12:51;;;;;;;;;;;12.70;99.90;;;;;;5034732;28;19912;-82
2021/12/31 02:15:18;;;;;;;;;;;12.70;99.90;;;;;;5049233;28;20268;-81
2021/12/31 02:17:44;;;;;;;;;;;12.80;99.90;;;;;;5034423;28;19921;-82
2021/12/31 02:20:10;;;;;;;;;;;12.70;99.90;;;;;;5035053;28;19923;-81
2021/12/31 02:22:38;;;;;;;;;;;12.70;99.90;;;;;;5035604;28;20275;-83
2021/12/31 02:25:04;;;;;;;;;;;12.80;99.90;;;;;;5037419;28;19916;-82
2021/12/31 02:27:29;;;;;;;;;;;12.80;99.90;;;;;;5035992;28;19991;-81
2021/12/31 02:29:55;;;;;;;;;;;12.70;99.90;;;;;;5034755;28;20011;-80
2021/12/31 02:32:20;;;;;;;;;;;12.80;99.90;;;;;;5033742;28;19948;-81
2021/12/31 02:34:46;;;;;;;;;;;12.80;99.90;;;;;;5050541;28;19917;-82
2021/12/31 02:37:15;;;;;;;;;;;12.70;99.90;;;;;;5047909;28;20011;-82
2021/12/31 02:39:42;;;;;;;;;;;12.80;99.90;;;;;;5048429;28;19919;-82
2021/12/31 02:42:08;;;;;;;;;;;12.70;99.90;;;;;;5036168;28;19912;-82
2021/12/31 02:44:36;;;;;;;;;;;12.70;99.90;;;;;;5036157;28;20010;-82
2021/12/31 02:47:05;;;;;;;;;;;12.70;99.90;;;;;;5049723;28;19912;-82
2021/12/31 02:49:35;;;;;;;;;;;12.70;99.90;;;;;;5035031;28;19913;-82
2021/12/31 02:52:02;;;;;;;;;;;12.70;99.90;;;;;;5043369;28;19921;-81
2021/12/31 02:54:28;;;;;;;;;;;12.70;99.90;;;;;;5055787;28;19920;-81
2021/12/31 02:56:54;;;;;;;;;;;12.70;99.90;;;;;;5039697;28;19921;-82
2021/12/31 02:59:19;;;;;;;;;;;12.70;99.90;;;;;;5042318;28;20410;-81
2021/12/31 03:01:46;;;;;;;;;;;12.70;99.90;;;;;;5057530;28;20315;-82
2021/12/31 03:04:12;;;;;;;;;;;12.70;99.90;;;;;;5058020;28;19919;-81
2021/12/31 03:06:38;;;;;;;;;;;12.70;99.90;;;;;;5040765;28;19927;-82
2021/12/31 03:09:04;;;;;;;;;;;12.70;99.90;;;;;;5040130;28;20050;-81
2021/12/31 03:11:30;;;;;;;;;;;12.70;99.90;;;;;;5057596;28;19984;-81
2021/12/31 03:13:57;;;;;;;;;;;12.70;99.90;;;;;;5030932;28;20317;-81
2021/12/31 03:16:23;;;;;;;;;;;12.70;99.90;;;;;;5041842;28;19966;-81
2021/12/31 03:18:49;;;;;;;;;;;12.70;99.90;;;;;;5040278;28;20340;-81
2021/12/31 03:21:20;;;;;;;;;;;12.70;99.90;;;;;;5058521;28;19939;-83
2021/12/31 03:23:46;;;;;;;;;;;12.70;99.90;;;;;;5054930;28;19913;-81
2021/12/31 03:26:12;;;;;;;;;;;12.70;99.90;;;;;;5042938;28;19995;-81
2021/12/31 03:28:37;;;;;;;;;;;12.70;99.90;;;;;;5043386;28;20161;-81
2021/12/31 03:31:03;;;;;;;;;;;12.60;99.90;;;;;;5042313;28;19924;-80
2021/12/31 03:33:28;;;;;;;;;;;12.60;99.90;;;;;;5057227;28;19915;-80
2021/12/31 03:35:54;;;;;;;;;;;12.60;99.90;;;;;;5056699;28;19916;-81
2021/12/31 03:38:19;;;;;;;;;;;12.70;99.90;;;;;;5040239;28;19952;-81
2021/12/31 03:40:46;;;;;;;;;;;12.70;99.90;;;;;;5056663;28;20497;-83
2021/12/31 03:43:12;;;;;;;;;;;12.60;99.90;;;;;;5041005;28;20085;-81
2021/12/31 03:45:38;;;;;;;;;;;12.70;99.90;;;;;;5047262;28;19944;-82
2021/12/31 03:48:04;;;;;;;;;;;12.70;99.90;;;;;;5056440;28;20107;-81
2021/12/31 03:50:29;;;;;;;;;;;12.60;99.90;;;;;;5039966;28;20114;-81
2021/12/31 03:52:55;;;;;;;;;;;12.60;99.90;;;;;;5052728;28;20711;-80
2021/12/31 03:55:21;;;;;;;;;;;12.70;99.90;;;;;;5042146;28;19942;-80
2021/12/31 03:57:46;;;;;;;;;;;12.60;99.90;;;;;;5041633;28;20472;-81
2021/12/31 04:00:12;;;;;;;;;;;12.60;99.90;;;;;;5053614;28;19919;-80
2021/12/31 04:02:38;;;;;;;;;;;12.70;99.90;;;;;;5038498;28;19917;-82
2021/12/31 04:05:04;;;;;;;;;;;12.70;99.90;;;;;;5038266;28;20017;-81
2021/12/31 04:07:29;;;;;;;;;;;12.70;99.90;;;;;;5037131;28;19995;-81
2021/12/31 04:09:54;;;;;;;;;;;12.70;99.90;;;;;;5039261;28;20665;-81
2021/12/31 04:12:20;;;;;;;;;;;12.70;99.90;;;;;;5052574;28;20280;-82
2021/12/31 04:14:45;;;;;;;;;;;12.60;99.90;;;;;;5038105;28;20018;-82
2021/12/31 04:17:11;;;;;;;;;;;12.60;99.90;;;;;;5039746;28;20507;-82
2021/12/31 04:19:37;;;;;;;;;;;12.60;99.90;;;;;;5038554;28;19916;-82
2021/12/31 04:22:02;;;;;;;;;;;12.60;99.90;;;;;;5036503;28;19919;-82
2021/12/31 04:24:50;;;;;;;;;;;12.60;99.90;;;;;;5038147;28;20789;-83
2021/12/31 04:27:13;;;;;;;;;;;12.60;99.90;;;;;;5052700;28;20316;-82
2021/12/31 04:29:39;;;;;;;;;;;12.60;99.90;;;;;;5036468;28;19919;-81
2021/12/31 04:32:05;;;;;;;;;;;12.70;99.90;;;;;;5036864;28;20390;-83
2021/12/31 04:34:31;;;;;;;;;;;12.60;99.90;;;;;;5053054;28;19912;-82
2021/12/31 04:36:57;;;;;;;;;;;12.70;99.90;;;;;;5038141;28;19923;-83
2021/12/31 04:39:22;;;;;;;;;;;12.60;99.90;;;;;;5036241;28;19995;-82
2021/12/31 04:41:48;;;;;;;;;;;12.60;99.90;;;;;;5038829;28;19909;-82
2021/12/31 04:44:14;;;;;;;;;;;12.60;99.90;;;;;;5052777;28;19920;-81
2021/12/31 04:46:39;;;;;;;;;;;12.60;99.90;;;;;;5037047;28;20328;-81
2021/12/31 04:49:06;;;;;;;;;;;12.60;99.90;;;;;;5039862;28;19917;-81
2021/12/31 04:51:32;;;;;;;;;;;12.60;99.90;;;;;;5052573;28;20189;-82
2021/12/31 04:53:58;;;;;;;;;;;12.60;99.90;;;;;;5037015;28;20382;-83
2021/12/31 04:56:23;;;;;;;;;;;12.60;99.90;;;;;;5037405;28;20007;-82
2021/12/31 04:58:49;;;;;;;;;;;12.60;99.90;;;;;;5035723;28;19952;-82
2021/12/31 05:01:15;;;;;;;;;;;12.60;99.90;;;;;;5037589;28;19991;-81
2021/12/31 05:03:40;;;;;;;;;;;12.60;99.90;;;;;;5038346;28;20291;-82
2021/12/31 05:06:06;;;;;;;;;;;12.60;99.90;;;;;;5035599;28;19918;-82
2021/12/31 05:08:31;;;;;;;;;;;12.60;99.90;;;;;;5035010;28;20011;-82
2021/12/31 05:10:57;;;;;;;;;;;12.60;99.90;;;;;;5035737;28;20371;-82
2021/12/31 05:13:22;;;;;;;;;;;12.60;99.90;;;;;;5037325;28;19920;-83
2021/12/31 05:15:48;;;;;;;;;;;12.60;99.90;;;;;;5036325;28;19974;-83
2021/12/31 05:18:14;;;;;;;;;;;12.70;99.90;;;;;;5037703;28;19951;-84
2021/12/31 05:20:39;;;;;;;;;;;12.70;99.90;;;;;;5034899;28;19956;-83
2021/12/31 05:23:05;;;;;;;;;;;12.70;99.90;;;;;;5033092;28;19924;-82
2021/12/31 05:25:30;;;;;;;;;;;12.70;99.90;;;;;;5048035;28;19988;-82
2021/12/31 05:27:56;;;;;;;;;;;12.70;99.90;;;;;;5033504;28;20323;-82
2021/12/31 05:30:21;;;;;;;;;;;12.70;99.90;;;;;;5032916;28;19959;-82
2021/12/31 05:32:47;;;;;;;;;;;12.70;99.90;;;;;;5032879;28;20253;-82
2021/12/31 05:35:12;;;;;;;;;;;12.70;99.90;;;;;;5030408;28;19920;-81
2021/12/31 05:37:38;;;;;;;;;;;12.70;99.90;;;;;;5031512;28;19909;-82
2021/12/31 05:40:04;;;;;;;;;;;12.70;99.90;;;;;;5032847;28;19917;-82
2021/12/31 05:42:29;;;;;;;;;;;12.70;99.90;;;;;;5034791;28;19945;-82
2021/12/31 05:44:55;;;;;;;;;;;12.80;99.90;;;;;;5031405;28;19912;-81
2021/12/31 05:47:20;;;;;;;;;;;12.80;99.90;;;;;;5033098;28;19943;-82
2021/12/31 05:49:46;;;;;;;;;;;12.80;99.90;;;;;;5033159;28;19913;-82
2021/12/31 05:52:12;;;;;;;;;;;12.80;99.90;;;;;;5027453;28;19920;-82
2021/12/31 05:54:40;;;;;;;;;;;12.80;99.90;;;;;;5032494;28;19913;-82
2021/12/31 05:57:05;;;;;;;;;;;12.80;99.90;;;;;;5031159;28;19995;-82
2021/12/31 05:59:30;;;;;;;;;;;12.80;99.90;;;;;;5033864;28;19998;-81
2021/12/31 06:01:56;;;;;;;;;;;12.90;99.90;;;;;;5032495;28;19967;-80
2021/12/31 06:04:22;;;;;;;;;;;12.90;99.90;;;;;;5030530;28;19914;-80
2021/12/31 06:06:48;;;;;;;;;;;12.90;99.90;;;;;;5032156;28;19961;-80
2021/12/31 06:09:13;;;;;;;;;;;12.80;99.90;;;;;;5032736;28;19912;-80
2021/12/31 06:11:42;;;;;;;;;;;12.80;99.90;;;;;;5029247;28;20341;-81
2021/12/31 06:14:08;;;;;;;;;;;12.80;99.90;;;;;;5032295;28;19920;-80
2021/12/31 06:16:37;;;;;;;;;;;12.80;99.90;;;;;;5035330;28;19940;-80
2021/12/31 06:19:06;;;;;;;;;;;12.80;99.90;;;;;;5032222;28;19913;-80
2021/12/31 06:21:32;;;;;;;;;;;12.80;99.90;;;;;;5030198;28;19920;-79
2021/12/31 06:23:58;;;;;;;;;;;12.90;99.90;;;;;;5029133;28;19912;-79
2021/12/31 06:26:24;;;;;;;;;;;12.80;99.90;;;;;;5033440;28;19924;-81
2021/12/31 06:28:49;;;;;;;;;;;12.80;99.90;;;;;;5032140;28;19916;-81
2021/12/31 06:31:16;;;;;;;;;;;12.80;99.90;;;;;;5034112;28;19962;-80
2021/12/31 06:33:41;;;;;;;;;;;12.80;99.90;;;;;;5034638;28;19920;-81
2021/12/31 06:36:06;;;;;;;;;;;12.80;99.90;;;;;;5031556;28;20433;-81
2021/12/31 06:38:32;;;;;;;;;;;12.80;99.90;;;;;;5032015;28;20269;-81
2021/12/31 06:40:58;;;;;;;;;;;12.80;99.90;;;;;;5033296;28;19913;-80
2021/12/31 06:43:23;;;;;;;;;;;12.70;99.90;;;;;;5032045;28;19987;-80
2021/12/31 06:45:49;;;;;;;;;;;12.80;99.90;;;;;;5029763;28;20113;-80
2021/12/31 06:48:14;;;;;;;;;;;12.80;99.90;;;;;;5032759;28;20569;-81
2021/12/31 06:50:39;;;;;;;;;;;12.80;99.90;;;;;;5031747;28;19909;-81
2021/12/31 06:53:05;;;;;;;;;;;12.80;99.90;;;;;;5030912;28;19969;-81
2021/12/31 06:55:32;;;;;;;;;;;12.80;99.90;;;;;;5028157;28;19994;-80
2021/12/31 06:57:57;;;;;;;;;;;12.80;99.90;;;;;;5031522;28;19963;-82
2021/12/31 07:00:24;;;;;;;;;;;12.80;99.90;;;;;;5034764;28;20344;-80
2021/12/31 07:02:49;;;;;;;;;;;12.80;99.90;;;;;;5035243;28;19949;-81
2021/12/31 07:05:15;;;;;;;;;;;12.80;99.90;;;;;;5024060;28;19948;-80
2021/12/31 07:07:40;;;;;;;;;;;12.80;99.90;;;;;;5031989;28;19967;-81
2021/12/31 07:10:06;;;;;;;;;;;12.80;99.90;;;;;;5031573;28;19913;-81
2021/12/31 07:12:32;;;;;;;;;;;12.80;99.90;;;;;;5033049;28;19992;-81
2021/12/31 07:14:58;;;;;;;;;;;12.80;99.90;;;;;;5034213;28;19944;-80
2021/12/31 07:17:23;;;;;;;;;;;12.80;99.90;;;;;;5029838;28;19943;-82
2021/12/31 07:19:49;;;;;;;;;;;12.80;99.90;;;;;;5031148;28;20335;-84
2021/12/31 07:22:21;;;;;;;;;;;12.80;99.90;;;;;;4989362;28;19908;-84
2021/12/31 07:24:47;;;;;;;;;;;12.80;99.90;;;;;;5033484;28;19913;-85
2021/12/31 07:27:29;;;;;;;;;;;12.80;99.90;;;;;;5022830;28;19981;-84
2021/12/31 07:36:30;;;;;;;;;;;12.80;99.90;;;;;;4913687;28;19953;-85
2021/12/31 07:39:03;;;;;;;;;;;12.90;99.90;;;;;;5014599;28;20063;-81
2021/12/31 07:41:28;;;;;;;;;;;12.90;99.90;;;;;;5036505;28;20343;-80
2021/12/31 07:43:54;;;;;;;;;;;13.00;99.90;;;;;;5037029;28;19916;-82
2021/12/31 07:46:19;;;;;;;;;;;13.00;99.90;;;;;;5048095;28;19920;-82
2021/12/31 07:48:45;;;;;;;;;;;13.00;99.90;;;;;;5036087;28;19912;-81
2021/12/31 07:51:10;;;;;;;;;;;13.10;99.90;;;;;;5031667;28;19920;-81
2021/12/31 07:53:36;;;;;;;;;;;13.00;99.90;;;;;;5036343;28;19920;-81
2021/12/31 07:56:01;;;;;;;;;;;13.00;99.90;;;;;;5037437;28;19913;-82
2021/12/31 07:58:27;;;;;;;;;;;13.00;99.90;;;;;;5037423;28;19928;-81
2021/12/31 08:00:53;;;;;;;;;;;13.00;99.90;;;;;;5036105;28;20039;-82
2021/12/31 08:03:19;;;;;;;;;;;13.00;99.90;;;;;;5037525;28;19912;-82
2021/12/31 08:05:44;;;;;;;;;;;13.00;99.90;;;;;;5037175;28;19920;-81
2021/12/31 08:08:10;;;;;;;;;;;13.10;99.90;;;;;;5050353;28;19917;-80
2021/12/31 08:10:37;;;;;;;;;;;13.10;99.90;;;;;;5037988;28;20427;-83
2021/12/31 08:13:03;;;;;;;;;;;13.10;99.90;;;;;;5037320;28;19913;-82
2021/12/31 08:15:29;;;;;;;;;;;13.10;99.90;;;;;;5048782;28;19924;-83
2021/12/31 08:17:55;;;;;;;;;;;13.10;99.90;;;;;;5053585;28;19912;-83
2021/12/31 08:20:21;;;;;;;;;;;13.20;99.90;;;;;;5038865;28;19919;-82
2021/12/31 08:22:47;;;;;;;;;;;13.10;99.90;;;;;;5040316;28;20314;-84
2021/12/31 08:25:12;;;;;;;;;;;13.10;99.90;;;;;;5041354;28;19909;-83
2021/12/31 08:27:38;;;;;;;;;;;13.10;99.90;;;;;;5040775;28;20475;-83
2021/12/31 08:30:04;;;;;;;;;;;13.20;99.90;;;;;;5027557;28;19975;-83
2021/12/31 08:32:30;;;;;;;;;;;13.20;99.90;;;;;;5041301;28;19917;-81
2021/12/31 08:35:01;;;;;;;;;;;13.20;99.90;;;;;;5021394;28;19923;-84
2021/12/31 08:37:27;;;;;;;;;;;13.20;99.90;;;;;;5015208;28;19990;-83
2021/12/31 08:39:52;;;;;;;;;;;13.20;99.90;;;;;;5017975;28;19913;-84
2021/12/31 08:42:18;;;;;;;;;;;13.20;99.90;;;;;;5007246;28;19912;-83
2021/12/31 08:44:44;;;;;;;;;;;13.20;99.90;;;;;;5008961;28;19913;-83
2021/12/31 08:47:09;;;;;;;;;;;13.20;99.90;;;;;;5018218;28;19920;-83
2021/12/31 08:49:35;;;;;;;;;;;13.30;99.90;;;;;;5017740;28;19909;-84
2021/12/31 08:52:02;;;;;;;;;;;13.30;99.90;;;;;;5034597;28;19912;-83
2021/12/31 08:54:28;;;;;;;;;;;13.30;99.90;;;;;;5019906;28;19908;-82
2021/12/31 08:56:54;;;;;;;;;;;13.30;99.90;;;;;;5011711;28;19917;-84
2021/12/31 08:59:20;;;;;;;;;;;13.20;99.90;;;;;;5018272;28;19916;-83
2021/12/31 09:01:46;;;;;;;;;;;13.20;99.90;;;;;;5014820;28;20356;-84
2021/12/31 09:04:11;;;;;;;;;;;13.20;99.90;;;;;;5030331;28;19912;-84
2021/12/31 09:06:37;;;;;;;;;;;13.20;99.90;;;;;;5017754;28;20598;-83
2021/12/31 09:09:03;;;;;;;;;;;13.20;99.90;;;;;;5017916;28;19912;-84
2021/12/31 09:11:29;;;;;;;;;;;13.20;99.90;;;;;;5017565;28;19913;-82
2021/12/31 09:13:55;;;;;;;;;;;13.30;99.90;;;;;;5025930;28;19939;-82
2021/12/31 09:16:21;;;;;;;;;;;13.30;99.90;;;;;;5014043;28;20463;-84
2021/12/31 09:18:47;;;;;;;;;;;13.30;99.90;;;;;;5016260;28;19915;-82
2021/12/31 09:21:17;;;;;;;;;;;13.30;99.90;;;;;;5020669;28;19913;-82
2021/12/31 09:23:43;;;;;;;;;;;13.20;99.90;;;;;;5018331;28;19958;-83
2021/12/31 09:26:09;;;;;;;;;;;13.20;99.90;;;;;;5005518;28;20237;-82
2021/12/31 09:28:35;;;;;;;;;;;13.30;99.90;;;;;;5019233;28;19912;-87
2021/12/31 09:31:02;;;;;;;;;;;13.20;99.90;;;;;;5017660;28;20257;-83
2021/12/31 09:33:28;;;;;;;;;;;13.30;99.90;;;;;;5045556;28;19921;-85
2021/12/31 09:35:54;;;;;;;;;;;13.30;99.90;;;;;;5035266;28;19956;-84
2021/12/31 09:38:19;;;;;;;;;;;13.30;99.90;;;;;;5036322;28;19970;-82
2021/12/31 09:40:45;;;;;;;;;;;13.30;99.90;;;;;;5051760;28;20288;-84
2021/12/31 09:43:12;;;;;;;;;;;13.30;99.90;;;;;;5036920;28;19913;-83
2021/12/31 09:45:38;;;;;;;;;;;13.30;99.90;;;;;;5034199;28;19959;-84
2021/12/31 09:48:10;;;;;;;;;;;13.40;99.90;;;;;;5016521;28;19923;-83
2021/12/31 09:50:39;;;;;;;;;;;13.40;99.90;;;;;;5044955;28;19913;-84
2021/12/31 09:53:06;;;;;;;;;;;13.40;99.90;;;;;;5052695;28;19955;-86
2021/12/31 09:55:35;;;;;;;;;;;13.40;99.90;;;;;;5036311;28;20372;-82
2021/12/31 09:58:00;;;;;;;;;;;13.40;99.90;;;;;;5038123;28;19945;-82
2021/12/31 10:00:27;;;;;;;;;;;13.40;99.90;;;;;;5038824;28;20000;-83
2021/12/31 10:03:28;;;;;;;;;;;13.30;99.90;;;;;;5037224;28;20011;-83
2021/12/31 10:05:59;;;;;;;;;;;13.30;99.90;;;;;;4964935;28;19914;-82
2021/12/31 10:08:29;;;;;;;;;;;13.20;99.90;;;;;;5022528;28;20339;-83
2021/12/31 10:11:02;;;;;;;;;;;13.20;99.90;;;;;;5050273;28;20322;-83
2021/12/31 10:13:28;;;;;;;;;;;13.20;99.90;;;;;;5037934;28;19909;-84
2021/12/31 10:15:56;;;;;;;;;;;13.20;99.90;;;;;;5052984;28;19927;-83
2021/12/31 10:18:28;;;;;;;;;;;13.20;99.90;;;;;;5038043;28;19908;-83
2021/12/31 10:20:53;;;;;;;;;;;13.20;99.90;;;;;;5030080;28;20330;-83
2021/12/31 10:23:19;;;;;;;;;;;13.20;99.90;;;;;;5031393;28;19913;-84
2021/12/31 10:25:45;;;;;;;;;;;13.10;99.90;;;;;;5034314;28;19912;-85
2021/12/31 10:28:13;;;;;;;;;;;13.10;99.90;;;;;;5031774;28;19912;-85
2021/12/31 10:30:39;;;;;;;;;;;13.20;99.90;;;;;;5032975;28;20368;-85
2021/12/31 10:33:04;;;;;;;;;;;13.20;99.90;;;;;;5033106;28;19923;-84
2021/12/31 10:35:37;;;;;;;;;;;13.10;99.90;;;;;;5013037;28;19976;-85
2021/12/31 10:38:04;;;;;;;;;;;13.10;99.90;;;;;;5035748;28;20360;-86
2021/12/31 10:40:36;;;;;;;;;;;13.10;99.90;;;;;;5033479;28;19912;-86
2021/12/31 10:43:18;;;;;;;;;;;13.00;99.90;;;;;;5033644;28;20009;-85
2021/12/31 10:46:02;;;;;;;;;;;13.10;99.90;;;;;;5033874;28;20012;-85
2021/12/31 10:48:50;;;;;;;;;;;13.10;99.90;;;;;;5049597;28;19920;-84
2021/12/31 10:51:16;;;;;;;;;;;13.10;99.90;;;;;;5033060;28;19935;-85
2021/12/31 10:53:50;;;;;;;;;;;13.10;99.90;;;;;;5048919;28;19954;-84
2021/12/31 10:56:15;;;;;;;;;;;13.10;99.90;;;;;;5035431;28;19939;-85
2021/12/31 10:58:47;;;;;;;;;;;13.10;99.90;;;;;;5035144;28;19908;-84
2021/12/31 11:01:14;;;;;;;;;;;13.10;99.90;;;;;;5039985;28;20585;-85
2021/12/31 11:03:40;;;;;;;;;;;13.10;99.90;;;;;;5053411;28;19912;-84
2021/12/31 11:06:07;;;;;;;;;;;13.10;99.90;;;;;;5036347;28;19908;-86
2021/12/31 11:08:33;;;;;;;;;;;13.10;99.90;;;;;;5036813;28;20315;-87
2021/12/31 11:11:00;;;;;;;;;;;13.10;99.90;;;;;;5038401;28;19913;-86
2021/12/31 11:13:28;;;;;;;;;;;13.10;99.90;;;;;;5054063;28;19920;-86
2021/12/31 11:15:55;;;;;;;;;;;13.10;99.90;;;;;;5046309;28;19920;-84
2021/12/31 11:18:23;;;;;;;;;;;13.20;99.90;;;;;;5039376;28;19913;-85
2021/12/31 11:21:23;;;;;;;;;;;13.20;99.90;;;;;;4998199;28;19959;-85
2021/12/31 11:23:49;;;;;;;;;;;13.20;99.90;;;;;;5025825;28;20288;-86
2021/12/31 11:26:25;;;;;;;;;;;13.30;99.90;;;;;;5037259;28;19912;-84
2021/12/31 11:28:52;;;;;;;;;;;13.20;99.90;;;;;;5040496;28;19963;-85
2021/12/31 11:31:20;;;;;;;;;;;13.20;99.90;;;;;;5037856;28;19912;-85
2021/12/31 11:33:57;;;;;;;;;;;13.20;99.90;;;;;;5039295;28;19924;-89
2021/12/31 11:36:42;;;;;;;;;;;13.20;99.90;;;;;;5053553;28;20392;-89
2021/12/31 11:39:23;;;;;;;;;;;13.30;99.90;;;;;;5050812;28;20391;-89
2021/12/31 11:41:48;;;;;;;;;;;13.30;99.90;;;;;;5039056;28;20428;-84
2021/12/31 11:44:14;;;;;;;;;;;13.40;99.90;;;;;;5038753;28;20386;-84
2021/12/31 11:46:41;;;;;;;;;;;13.30;99.90;;;;;;5052124;28;19920;-84
2021/12/31 11:49:26;;;;;;;;;;;13.30;99.90;;;;;;5037514;28;19943;-85
2021/12/31 11:51:57;;;;;;;;;;;13.30;99.90;;;;;;5034611;28;20023;-85
2021/12/31 11:54:23;;;;;;;;;;;13.30;99.90;;;;;;5045486;28;19943;-84
2021/12/31 11:56:52;;;;;;;;;;;13.30;99.90;;;;;;5036924;28;19920;-84
2021/12/31 11:59:19;;;;;;;;;;;13.40;99.90;;;;;;5044238;28;20372;-84
2021/12/31 12:02:03;;;;;;;;;;;13.40;99.90;;;;;;5052958;28;20005;-84
2021/12/31 12:04:30;;;;;;;;;;;13.40;99.90;;;;;;5035245;28;20419;-85
2021/12/31 12:07:02;;;;;;;;;;;13.50;99.90;;;;;;5034218;28;20407;-84
2021/12/31 12:09:37;;;;;;;;;;;13.50;99.90;;;;;;5028063;28;19913;-83
2021/12/31 12:12:05;;;;;;;;;;;13.50;99.90;;;;;;5052904;28;20364;-85
2021/12/31 12:14:37;;;;;;;;;;;13.50;99.90;;;;;;5054908;28;19995;-85
2021/12/31 12:17:03;;;;;;;;;;;13.50;99.90;;;;;;5028140;28;20372;-83
2021/12/31 12:19:46;;;;;;;;;;;13.50;99.90;;;;;;5037877;28;19955;-84
2021/12/31 12:22:34;;;;;;;;;;;13.60;99.90;;;;;;5047783;28;20023;-85
2021/12/31 12:25:01;;;;;;;;;;;13.60;99.90;;;;;;5036120;28;19913;-84
2021/12/31 12:27:27;;;;;;;;;;;13.70;99.90;;;;;;4988020;28;19917;-86
2021/12/31 12:29:53;;;;;;;;;;;13.60;99.90;;;;;;5052999;28;19913;-84
2021/12/31 12:32:30;;;;;;;;;;;13.60;99.90;;;;;;5035203;28;19921;-85
2021/12/31 12:34:56;;;;;;;;;;;13.60;99.90;;;;;;5036683;28;19927;-84
2021/12/31 12:37:28;;;;;;;;;;;13.60;99.90;;;;;;5032131;28;20519;-83
2021/12/31 12:40:00;;;;;;;;;;;13.60;99.90;;;;;;5033052;28;19920;-84
2021/12/31 12:42:26;;;;;;;;;;;13.70;99.90;;;;;;5040371;28;19998;-82
2021/12/31 12:44:58;;;;;;;;;;;13.60;99.90;;;;;;5026080;28;19909;-85
2021/12/31 12:47:24;;;;;;;;;;;13.70;99.90;;;;;;5033565;28;19932;-83
2021/12/31 12:49:59;;;;;;;;;;;13.70;99.90;;;;;;5026140;28;19913;-84
2021/12/31 12:52:24;;;;;;;;;;;13.80;99.90;;;;;;5024547;28;20419;-83
2021/12/31 12:55:09;;;;;;;;;;;13.80;99.90;;;;;;5036009;28;19987;-83
2021/12/31 12:57:34;;;;;;;;;;;13.80;99.90;;;;;;5048376;28;20003;-85
2021/12/31 13:00:00;;;;;;;;;;;13.90;99.90;;;;;;5029420;28;20007;-83
2021/12/31 13:02:40;;;;;;;;;;;13.90;99.90;;;;;;5034732;28;19921;-84
2021/12/31 13:05:07;;;;;;;;;;;13.90;99.90;;;;;;5047520;28;20396;-87
2021/12/31 13:07:32;;;;;;;;;;;13.90;99.90;;;;;;5034405;28;19964;-84
2021/12/31 13:10:04;;;;;;;;;;;13.90;99.90;;;;;;5033913;28;20376;-85
2021/12/31 13:12:30;;;;;;;;;;;13.90;99.90;;;;;;5039379;28;19978;-84
2021/12/31 13:14:58;;;;;;;;;;;13.80;99.90;;;;;;5034683;28;19917;-83
2021/12/31 13:17:26;;;;;;;;;;;13.80;99.90;;;;;;5036124;28;19995;-85
2021/12/31 13:20:02;;;;;;;;;;;13.80;99.90;;;;;;5035234;28;20276;-86
2021/12/31 13:22:31;;;;;;;;;;;13.80;99.90;;;;;;5031181;28;20404;-86
2021/12/31 13:24:56;;;;;;;;;;;13.80;99.90;;;;;;5033764;28;19913;-85
2021/12/31 13:27:22;;;;;;;;;;;13.80;99.90;;;;;;5032808;28;19935;-85
2021/12/31 13:29:49;;;;;;;;;;;13.80;99.90;;;;;;5032570;28;19956;-86
2021/12/31 13:32:17;;;;;;;;;;;13.80;99.90;;;;;;5034983;28;19920;-84
2021/12/31 13:34:44;;;;;;;;;;;13.80;99.90;;;;;;5043579;28;19920;-84
2021/12/31 13:37:22;;;;;;;;;;;13.80;99.90;;;;;;5035920;28;19917;-82
2021/12/31 13:39:47;;;;;;;;;;;13.80;99.90;;;;;;5036568;28;20217;-82
2021/12/31 13:42:15;;;;;;;;;;;13.80;99.90;;;;;;5051716;28;19912;-83
2021/12/31 13:44:47;;;;;;;;;;;13.80;99.90;;;;;;5036971;28;19919;-83
2021/12/31 13:47:17;;;;;;;;;;;13.70;99.90;;;;;;5049612;28;19912;-84
2021/12/31 13:49:50;;;;;;;;;;;13.80;99.90;;;;;;5036000;28;19923;-83
2021/12/31 13:52:25;;;;;;;;;;;13.70;99.90;;;;;;5036661;28;19912;-82
2021/12/31 13:54:52;;;;;;;;;;;13.70;99.90;;;;;;5052040;28;19912;-82
2021/12/31 13:57:22;;;;;;;;;;;13.80;99.90;;;;;;5035922;28;19986;-81
2021/12/31 13:59:48;;;;;;;;;;;13.80;99.90;;;;;;5051739;28;20295;-82
2021/12/31 14:02:17;;;;;;;;;;;13.70;99.90;;;;;;5035492;28;19916;-82
2021/12/31 14:04:54;;;;;;;;;;;13.70;99.90;;;;;;5041641;28;20104;-83
2021/12/31 14:07:22;;;;;;;;;;;13.70;99.90;;;;;;5050793;28;19912;-82
2021/12/31 14:09:49;;;;;;;;;;;13.70;99.90;;;;;;5051669;28;20450;-83
2021/12/31 14:12:15;;;;;;;;;;;13.70;99.90;;;;;;5035644;28;20395;-84
2021/12/31 14:14:40;;;;;;;;;;;13.80;99.90;;;;;;5034294;28;19920;-83
2021/12/31 14:17:07;;;;;;;;;;;13.80;99.90;;;;;;5033504;28;19920;-84
2021/12/31 14:19:33;;;;;;;;;;;13.80;99.90;;;;;;5035677;28;19912;-85
2021/12/31 14:22:02;;;;;;;;;;;13.80;99.90;;;;;;5048744;28;19912;-83
2021/12/31 14:24:29;;;;;;;;;;;13.70;99.90;;;;;;5054437;28;20003;-83
2021/12/31 14:26:55;;;;;;;;;;;13.80;99.90;;;;;;5033803;28;19909;-82
2021/12/31 14:29:20;;;;;;;;;;;13.80;99.90;;;;;;5026637;28;19947;-83
2021/12/31 14:31:46;;;;;;;;;;;13.80;99.90;;;;;;5033543;28;19909;-83